Time;durP1;ratioP1;P1;durP2;ratioP2;P2;SDS_P1;SDS_P2;PMS_P1;PMS_P2;Temp;Humidity;BMP_temperature;BMP_pressure;BME280_temperature;BME280_humidity;BME280_pressure;Samples;Min_cycle;Max_cycle;Signal;HPM_P1;HPM_P2
2023/11/16 00:00:32;;;;;;;1.20;1.00;;;22.50;69.40;;;;;;5052836;28;20453;-83
2023/11/16 00:02:59;;;;;;;1.40;1.00;;;22.60;69.50;;;;;;5052884;28;20456;-83
2023/11/16 00:05:26;;;;;;;1.20;1.07;;;22.50;69.40;;;;;;5052742;28;20441;-83
2023/11/16 00:07:54;;;;;;;1.97;1.30;;;22.50;69.50;;;;;;5053026;28;20439;-83
2023/11/16 00:10:24;;;;;;;1.20;0.80;;;22.50;69.50;;;;;;5052821;28;20951;-83
2023/11/16 00:12:54;;;;;;;1.40;1.03;;;22.50;69.50;;;;;;5052761;28;21007;-83
2023/11/16 00:15:21;;;;;;;1.60;1.17;;;22.50;69.60;;;;;;5052823;28;20495;-83
2023/11/16 00:17:49;;;;;;;1.20;1.10;;;22.50;69.50;;;;;;5052942;28;20448;-83
2023/11/16 00:20:16;;;;;;;2.33;1.20;;;22.50;69.60;;;;;;5052710;28;20444;-83
2023/11/16 00:22:43;;;;;;;1.43;1.00;;;22.50;69.70;;;;;;5052995;28;20441;-83
2023/11/16 00:25:12;;;;;;;1.40;1.00;;;22.40;69.50;;;;;;5052762;28;20908;-83
2023/11/16 00:27:39;;;;;;;1.50;1.13;;;22.40;69.60;;;;;;5052613;28;21003;-83
2023/11/16 00:30:08;;;;;;;1.60;1.10;;;22.40;69.50;;;;;;5052319;28;20976;-83
2023/11/16 00:32:35;;;;;;;1.43;1.23;;;22.40;69.70;;;;;;5053712;28;20457;-83
2023/11/16 00:35:03;;;;;;;1.93;1.30;;;22.40;69.60;;;;;;5056689;28;20481;-83
2023/11/16 00:37:30;;;;;;;2.00;1.20;;;22.40;69.60;;;;;;5056309;28;20429;-93
2023/11/16 00:39:57;;;;;;;1.20;1.00;;;22.40;69.50;;;;;;5056205;28;20440;-83
2023/11/16 00:42:24;;;;;;;1.17;0.80;;;22.40;69.70;;;;;;5056115;28;20511;-83
2023/11/16 00:44:52;;;;;;;1.10;0.90;;;22.40;69.60;;;;;;5056062;28;20479;-83
2023/11/16 00:47:18;;;;;;;3.00;1.60;;;22.40;69.60;;;;;;5056188;28;21019;-83
2023/11/16 00:49:45;;;;;;;2.63;1.07;;;22.30;69.50;;;;;;5056157;28;20773;-89
2023/11/16 00:52:14;;;;;;;1.17;1.00;;;22.30;69.60;;;;;;5056164;28;20443;-83
2023/11/16 00:54:43;;;;;;;1.10;0.90;;;22.40;69.70;;;;;;5055975;28;20489;-83
2023/11/16 00:57:10;;;;;;;1.20;1.00;;;22.30;69.50;;;;;;5055973;28;20465;-83
2023/11/16 00:59:37;;;;;;;1.60;1.30;;;22.30;69.70;;;;;;5055602;28;20437;-83
2023/11/16 01:02:05;;;;;;;2.17;1.30;;;22.30;69.70;;;;;;5055004;28;20441;-83
2023/11/16 01:04:34;;;;;;;1.30;1.03;;;22.30;69.80;;;;;;5055847;28;20433;-83
2023/11/16 01:07:02;;;;;;;1.57;0.93;;;22.30;69.70;;;;;;5055485;28;20443;-83
2023/11/16 01:09:35;;;;;;;4.50;1.37;;;22.30;69.70;;;;;;5056065;28;20499;-95
2023/11/16 01:12:02;;;;;;;1.40;1.10;;;22.30;69.70;;;;;;5056100;28;20444;-94
2023/11/16 01:14:29;;;;;;;1.23;1.03;;;22.30;69.70;;;;;;5055882;28;20499;-94
2023/11/16 01:16:57;;;;;;;2.17;1.20;;;22.30;69.80;;;;;;5055785;28;20434;-94
2023/11/16 01:19:26;;;;;;;1.40;1.03;;;22.30;69.90;;;;;;5055631;28;20441;-83
2023/11/16 01:21:55;;;;;;;2.17;1.40;;;22.30;69.90;;;;;;5055375;28;20507;-82
2023/11/16 01:24:23;;;;;;;1.37;1.03;;;22.30;69.80;;;;;;5055970;28;20437;-83
2023/11/16 01:26:52;;;;;;;1.60;1.10;;;22.30;69.90;;;;;;5055704;28;20957;-85
2023/11/16 01:29:19;;;;;;;1.10;0.80;;;22.20;69.80;;;;;;5055796;28;20449;-94
2023/11/16 01:31:53;;;;;;;1.07;0.77;;;22.30;69.90;;;;;;5055711;28;20433;-83
2023/11/16 01:34:20;;;;;;;1.23;1.00;;;22.30;70.10;;;;;;5056050;28;20543;-92
2023/11/16 01:36:49;;;;;;;1.60;1.10;;;22.20;70.00;;;;;;5055701;28;20444;-93
2023/11/16 01:39:16;;;;;;;1.40;1.10;;;22.30;70.10;;;;;;5055835;28;20441;-95
2023/11/16 01:41:43;;;;;;;1.60;1.00;;;22.30;70.00;;;;;;5055331;28;20438;-95
2023/11/16 01:44:11;;;;;;;1.23;0.97;;;22.20;69.90;;;;;;5054950;28;20437;-84
2023/11/16 01:46:40;;;;;;;1.30;0.90;;;22.30;70.10;;;;;;5055533;28;20436;-95
2023/11/16 01:49:09;;;;;;;1.10;0.80;;;22.20;69.90;;;;;;5055666;28;20469;-95
2023/11/16 01:51:37;;;;;;;1.93;1.30;;;22.30;69.90;;;;;;5055403;28;20437;-94
2023/11/16 01:54:06;;;;;;;1.50;1.10;;;22.30;69.80;;;;;;5055414;28;20892;-95
2023/11/16 01:56:36;;;;;;;1.60;1.13;;;22.30;69.90;;;;;;5054921;28;20465;-93
2023/11/16 01:59:04;;;;;;;2.13;1.90;;;22.30;69.90;;;;;;5054691;28;20464;-89
2023/11/16 02:01:32;;;;;;;2.33;1.40;;;22.30;69.90;;;;;;5054915;28;20813;-83
2023/11/16 02:04:04;;;;;;;1.27;0.93;;;22.30;69.80;;;;;;5055093;28;20437;-83
2023/11/16 02:06:31;;;;;;;1.57;1.00;;;22.30;69.70;;;;;;5055582;28;20434;-83
2023/11/16 02:08:58;;;;;;;2.63;1.03;;;22.30;69.70;;;;;;5055031;28;20994;-83
2023/11/16 02:11:25;;;;;;;3.30;1.30;;;22.30;69.70;;;;;;5054940;28;20532;-83
2023/11/16 02:13:52;;;;;;;2.13;1.13;;;22.30;69.70;;;;;;5054919;28;20559;-83
2023/11/16 02:16:19;;;;;;;1.60;1.20;;;22.30;69.60;;;;;;5055018;28;20452;-95
2023/11/16 02:18:48;;;;;;;1.30;1.10;;;22.30;69.70;;;;;;5054868;28;20448;-83
2023/11/16 02:21:14;;;;;;;1.47;0.97;;;22.30;69.60;;;;;;5054955;28;20438;-88
2023/11/16 02:23:43;;;;;;;2.53;1.10;;;22.30;69.50;;;;;;5054838;28;20437;-95
2023/11/16 02:26:10;;;;;;;1.30;1.20;;;22.30;69.50;;;;;;5054947;28;20447;-83
2023/11/16 02:28:38;;;;;;;1.37;1.20;;;22.30;69.60;;;;;;5054825;28;20449;-95
2023/11/16 02:31:06;;;;;;;1.47;1.27;;;22.40;69.70;;;;;;5054646;28;20492;-94
2023/11/16 02:33:34;;;;;;;1.13;1.00;;;22.30;69.50;;;;;;5049108;28;20921;-83
2023/11/16 02:36:00;;;;;;;1.50;1.00;;;22.30;69.50;;;;;;5034561;28;20469;-83
2023/11/16 02:38:27;;;;;;;1.50;1.13;;;22.30;69.50;;;;;;5034825;28;20507;-95
2023/11/16 02:40:57;;;;;;;1.20;0.90;;;22.30;69.50;;;;;;5034453;28;20445;-95
2023/11/16 02:43:28;;;;;;;1.40;1.00;;;22.30;69.50;;;;;;5034422;28;20446;-95
2023/11/16 02:45:55;;;;;;;1.40;1.20;;;22.30;69.50;;;;;;5034488;28;20979;-95
2023/11/16 02:48:21;;;;;;;1.30;0.90;;;22.30;69.40;;;;;;5034738;28;20537;-94
2023/11/16 02:50:49;;;;;;;1.20;1.00;;;22.30;69.50;;;;;;5034313;28;20434;-94
2023/11/16 02:53:16;;;;;;;1.20;0.90;;;22.30;69.50;;;;;;5034094;28;20532;-96
2023/11/16 02:55:42;;;;;;;2.13;1.23;;;22.30;69.50;;;;;;5033405;28;20492;-94
2023/11/16 02:58:11;;;;;;;1.40;1.00;;;22.30;69.50;;;;;;5033806;28;20451;-95
2023/11/16 03:00:38;;;;;;;1.40;0.90;;;22.30;69.40;;;;;;5034373;28;20442;-95
2023/11/16 03:03:05;;;;;;;1.83;1.03;;;22.40;69.60;;;;;;5033789;28;20449;-83
2023/11/16 03:05:33;;;;;;;1.40;1.00;;;22.30;69.50;;;;;;5033730;28;20545;-83
2023/11/16 03:07:59;;;;;;;1.47;1.00;;;22.30;69.50;;;;;;5033875;28;20464;-95
2023/11/16 03:10:28;;;;;;;1.20;1.03;;;22.30;69.50;;;;;;5034340;28;20438;-83
2023/11/16 03:12:56;;;;;;;1.27;1.13;;;22.30;69.30;;;;;;5033869;28;20462;-83
2023/11/16 03:15:24;;;;;;;1.23;1.00;;;22.40;69.70;;;;;;5033365;28;20493;-83
2023/11/16 03:17:51;;;;;;;1.20;0.90;;;22.30;69.50;;;;;;5033648;28;20434;-87
2023/11/16 03:20:18;;;;;;;1.23;1.00;;;22.30;69.50;;;;;;5033314;28;20445;-95
2023/11/16 03:22:44;;;;;;;1.30;0.80;;;22.30;70.30;;;;;;5033791;28;20453;-83
2023/11/16 03:25:11;;;;;;;1.37;1.03;;;22.30;69.50;;;;;;5033814;28;20437;-83
2023/11/16 03:27:38;;;;;;;1.50;1.17;;;22.30;69.40;;;;;;5033727;28;20460;-95
2023/11/16 03:30:06;;;;;;;1.30;1.00;;;22.30;69.50;;;;;;5033190;28;20565;-83
2023/11/16 03:32:35;;;;;;;1.30;0.90;;;22.30;69.40;;;;;;5033557;28;20434;-83
2023/11/16 03:35:02;;;;;;;1.60;1.10;;;22.40;69.50;;;;;;5033152;28;20521;-86
2023/11/16 03:37:31;;;;;;;1.30;1.00;;;22.40;69.40;;;;;;5033399;28;20502;-95
2023/11/16 03:39:58;;;;;;;2.13;0.83;;;22.40;69.40;;;;;;5033646;28;20469;-95
2023/11/16 03:42:25;;;;;;;1.10;0.87;;;22.30;69.30;;;;;;5033741;28;20521;-94
2023/11/16 03:44:51;;;;;;;1.30;0.90;;;22.30;69.40;;;;;;5033796;28;20918;-83
2023/11/16 03:47:18;;;;;;;1.30;1.00;;;22.40;69.40;;;;;;5033648;28;20469;-83
2023/11/16 03:49:46;;;;;;;1.30;0.90;;;22.30;69.40;;;;;;5033250;28;20531;-86
2023/11/16 03:52:13;;;;;;;1.97;1.00;;;22.30;69.40;;;;;;5033113;28;20533;-83
2023/11/16 03:54:42;;;;;;;1.20;1.00;;;22.30;69.50;;;;;;5032906;28;20517;-84
2023/11/16 03:57:11;;;;;;;1.73;1.10;;;22.30;69.30;;;;;;5032852;28;20993;-95
2023/11/16 03:59:38;;;;;;;1.70;1.10;;;22.40;69.40;;;;;;5033437;28;20442;-88
2023/11/16 04:02:05;;;;;;;1.40;1.00;;;22.40;69.40;;;;;;5033725;28;20476;-93
2023/11/16 04:04:32;;;;;;;1.50;1.00;;;22.40;69.40;;;;;;5033393;28;20449;-83
2023/11/16 04:07:00;;;;;;;1.73;1.00;;;22.40;69.30;;;;;;5033524;28;20529;-83
2023/11/16 04:09:27;;;;;;;1.20;0.93;;;22.40;69.30;;;;;;5037251;28;20442;-95
2023/11/16 04:11:54;;;;;;;1.10;0.80;;;22.40;69.30;;;;;;5037186;28;21003;-94
2023/11/16 04:14:21;;;;;;;1.40;1.00;;;22.40;69.40;;;;;;5037398;28;20898;-83
2023/11/16 04:16:52;;;;;;;1.47;1.03;;;22.40;69.30;;;;;;5037173;28;20446;-96
2023/11/16 04:19:20;;;;;;;1.60;1.00;;;22.30;69.30;;;;;;5037157;28;20438;-82
2023/11/16 04:21:47;;;;;;;1.20;1.00;;;22.40;69.50;;;;;;5036999;28;20438;-93
2023/11/16 04:24:16;;;;;;;1.37;0.90;;;22.30;69.30;;;;;;5037332;28;20521;-83
2023/11/16 04:26:45;;;;;;;1.33;0.90;;;22.40;69.50;;;;;;5036924;28;21418;-83
2023/11/16 04:29:14;;;;;;;1.53;1.03;;;22.30;69.40;;;;;;5036763;28;20441;-95
2023/11/16 04:31:42;;;;;;;1.57;1.13;;;22.30;69.30;;;;;;5036348;28;20438;-86
2023/11/16 04:34:10;;;;;;;1.30;1.10;;;22.40;69.30;;;;;;5036483;28;20512;-95
2023/11/16 04:36:37;;;;;;;1.50;1.00;;;22.30;69.40;;;;;;5036541;28;20438;-83
2023/11/16 04:39:06;;;;;;;2.03;1.40;;;22.30;69.30;;;;;;5036839;28;20444;-83
2023/11/16 04:41:34;;;;;;;1.30;1.00;;;22.30;69.20;;;;;;5036705;28;20458;-83
2023/11/16 04:44:01;;;;;;;1.10;0.90;;;22.30;69.30;;;;;;5036317;28;20979;-83
2023/11/16 04:46:28;;;;;;;1.20;0.90;;;22.30;69.40;;;;;;5036302;28;20434;-84
2023/11/16 04:48:55;;;;;;;1.10;0.80;;;22.30;69.40;;;;;;5036277;28;20803;-93
2023/11/16 04:51:24;;;;;;;1.30;0.80;;;22.30;69.40;;;;;;5036564;28;20525;-94
2023/11/16 04:53:51;;;;;;;4.60;1.13;;;22.30;69.50;;;;;;5036756;28;20776;-83
2023/11/16 04:56:18;;;;;;;1.13;0.90;;;22.30;69.50;;;;;;5036761;28;20497;-83
2023/11/16 04:58:46;;;;;;;1.80;1.37;;;22.30;69.40;;;;;;5043933;28;20529;-84
2023/11/16 05:01:15;;;;;;;1.63;1.17;;;22.40;69.40;;;;;;5056595;28;20868;-95
2023/11/16 05:03:44;;;;;;;2.70;1.30;;;22.30;69.30;;;;;;5056396;28;20970;-83
2023/11/16 05:06:11;;;;;;;1.50;1.10;;;22.40;69.50;;;;;;5056606;28;20912;-85
2023/11/16 05:08:37;;;;;;;1.60;1.00;;;22.40;69.30;;;;;;5056116;28;20450;-96
2023/11/16 05:11:05;;;;;;;1.50;1.10;;;22.40;69.30;;;;;;5056331;28;20444;-95
2023/11/16 05:13:32;;;;;;;1.57;1.20;;;22.40;69.30;;;;;;5056080;28;20449;-83
2023/11/16 05:16:01;;;;;;;1.10;0.80;;;22.40;69.20;;;;;;5056026;28;20847;-95
2023/11/16 05:18:28;;;;;;;1.40;0.90;;;22.40;69.20;;;;;;5055806;28;20520;-96
2023/11/16 05:20:55;;;;;;;1.30;1.20;;;22.40;69.20;;;;;;5055298;28;20524;-83
2023/11/16 05:23:21;;;;;;;1.20;1.00;;;22.40;69.20;;;;;;5056157;28;20433;-83
2023/11/16 05:25:48;;;;;;;1.50;1.07;;;22.40;69.10;;;;;;5055779;28;20867;-83
2023/11/16 05:28:16;;;;;;;1.10;0.90;;;22.50;69.30;;;;;;5055654;28;20467;-95
2023/11/16 05:30:43;;;;;;;1.27;1.10;;;22.50;69.30;;;;;;5055875;28;20565;-95
2023/11/16 05:33:12;;;;;;;2.00;1.00;;;22.50;69.30;;;;;;5055841;28;20469;-87
2023/11/16 05:35:39;;;;;;;1.37;1.13;;;22.50;69.10;;;;;;5055698;28;20524;-95
2023/11/16 05:38:06;;;;;;;1.30;0.93;;;22.50;69.10;;;;;;5055786;28;20437;-96
2023/11/16 05:40:33;;;;;;;1.30;1.07;;;22.50;69.20;;;;;;5055786;28;20536;-93
2023/11/16 05:43:01;;;;;;;1.80;1.00;;;22.50;69.10;;;;;;5055960;28;20441;-95
2023/11/16 05:45:28;;;;;;;1.70;1.10;;;22.50;69.00;;;;;;5055531;28;20540;-95
2023/11/16 05:47:56;;;;;;;1.20;0.90;;;22.50;69.00;;;;;;5055833;28;20441;-83
2023/11/16 05:50:25;;;;;;;1.20;0.90;;;22.50;69.10;;;;;;5055282;28;20449;-92
2023/11/16 05:52:52;;;;;;;1.80;1.20;;;22.50;69.90;;;;;;5055044;28;20445;-83
2023/11/16 05:55:20;;;;;;;1.43;0.90;;;22.50;69.00;;;;;;5055028;28;20838;-94
2023/11/16 05:57:47;;;;;;;1.43;1.00;;;22.60;69.00;;;;;;5054673;28;20493;-83
2023/11/16 06:00:15;;;;;;;1.10;0.80;;;22.60;69.00;;;;;;5046848;28;20462;-83
2023/11/16 06:02:42;;;;;;;1.20;0.90;;;22.60;69.00;;;;;;5055055;28;20449;-83
2023/11/16 06:05:11;;;;;;;1.27;1.17;;;22.60;69.00;;;;;;5054889;28;20445;-82
2023/11/16 06:07:39;;;;;;;1.57;1.00;;;22.60;69.00;;;;;;5054792;28;20987;-83
2023/11/16 06:10:10;;;;;;;1.53;1.17;;;22.60;69.00;;;;;;5054646;28;20474;-82
2023/11/16 06:12:37;;;;;;;3.13;1.30;;;22.60;69.00;;;;;;5055337;28;20803;-93
2023/11/16 06:15:06;;;;;;;1.50;1.10;;;22.60;69.00;;;;;;5056268;28;20493;-90
2023/11/16 06:17:33;;;;;;;1.10;1.00;;;22.60;69.00;;;;;;5056379;28;20449;-95
2023/11/16 06:20:00;;;;;;;1.30;0.97;;;22.60;69.10;;;;;;5056128;28;20441;-95
2023/11/16 06:22:27;;;;;;;1.30;1.00;;;22.60;69.00;;;;;;5056919;28;20471;-95
2023/11/16 06:24:55;;;;;;;1.20;0.90;;;22.60;69.80;;;;;;5056403;28;20449;-96
2023/11/16 06:27:22;;;;;;;1.50;1.37;;;22.60;69.00;;;;;;5056206;28;20544;-96
2023/11/16 06:29:50;;;;;;;2.03;0.90;;;22.60;69.00;;;;;;5054873;28;20480;-89
2023/11/16 06:32:17;;;;;;;1.20;1.00;;;22.60;68.90;;;;;;5054177;28;20434;-82
2023/11/16 06:34:44;;;;;;;1.17;1.00;;;22.60;69.00;;;;;;5054262;28;20433;-83
2023/11/16 06:37:11;;;;;;;2.23;1.10;;;22.60;68.80;;;;;;5054866;28;20481;-82
2023/11/16 06:39:38;;;;;;;1.60;1.23;;;22.60;68.80;;;;;;5055116;28;20441;-83
2023/11/16 06:42:06;;;;;;;1.67;1.10;;;22.60;68.80;;;;;;5054436;28;20530;-82
2023/11/16 06:44:33;;;;;;;1.77;1.40;;;22.60;68.80;;;;;;5054192;28;20430;-82
2023/11/16 06:47:00;;;;;;;1.93;0.90;;;22.60;68.80;;;;;;5054311;28;20967;-95
2023/11/16 06:49:27;;;;;;;1.30;0.80;;;22.60;68.80;;;;;;5034198;28;20439;-83
2023/11/16 06:51:54;;;;;;;1.10;0.93;;;22.60;68.90;;;;;;5034509;28;20434;-96
2023/11/16 06:54:21;;;;;;;1.20;1.07;;;22.60;68.70;;;;;;5034114;28;20529;-83
2023/11/16 06:56:49;;;;;;;1.30;1.00;;;22.60;68.70;;;;;;5034304;28;20585;-94
2023/11/16 06:59:19;;;;;;;1.50;1.10;;;22.60;68.60;;;;;;5034319;28;20802;-95
2023/11/16 07:01:47;;;;;;;1.40;0.90;;;22.60;68.80;;;;;;5034272;28;20843;-93
2023/11/16 07:04:15;;;;;;;1.30;0.90;;;22.70;68.80;;;;;;5034635;28;20443;-83
2023/11/16 07:06:42;;;;;;;1.10;0.80;;;22.60;68.70;;;;;;5033750;28;20477;-84
2023/11/16 07:09:11;;;;;;;1.60;1.10;;;22.70;68.70;;;;;;5033836;28;20482;-96
2023/11/16 07:11:38;;;;;;;1.23;1.00;;;22.70;68.80;;;;;;5034050;28;20442;-83
2023/11/16 07:14:10;;;;;;;1.93;0.90;;;22.70;68.60;;;;;;5034023;28;20438;-89
2023/11/16 07:16:38;;;;;;;1.30;1.00;;;22.70;68.90;;;;;;5043047;28;20520;-84
2023/11/16 07:19:06;;;;;;;1.30;1.00;;;22.70;69.00;;;;;;5053627;28;20433;-83
2023/11/16 07:21:33;;;;;;;1.40;1.00;;;22.70;68.70;;;;;;5053549;28;20438;-84
2023/11/16 07:24:01;;;;;;;3.57;1.40;;;22.70;68.60;;;;;;5052559;28;20506;-84
2023/11/16 07:26:28;;;;;;;1.33;0.90;;;22.70;68.80;;;;;;5050487;28;20884;-84
2023/11/16 07:28:54;;;;;;;1.20;0.90;;;22.70;68.90;;;;;;5053201;28;20921;-84
2023/11/16 07:31:21;;;;;;;1.80;1.67;;;22.70;68.90;;;;;;5053185;28;20992;-84
2023/11/16 07:33:52;;;;;;;1.50;1.07;;;22.70;68.90;;;;;;5053013;28;20962;-84
2023/11/16 07:36:25;;;;;;;1.20;1.03;;;22.70;69.00;;;;;;5053324;28;20995;-92
2023/11/16 07:38:52;;;;;;;3.63;1.10;;;22.70;69.00;;;;;;5045224;28;20445;-84
2023/11/16 07:41:20;;;;;;;1.30;0.97;;;22.70;69.20;;;;;;5053022;28;20866;-84
2023/11/16 07:43:46;;;;;;;1.23;0.87;;;22.70;69.10;;;;;;5051771;28;20808;-84
2023/11/16 07:46:13;;;;;;;4.73;1.77;;;22.70;69.10;;;;;;5053426;28;20438;-84
2023/11/16 07:48:41;;;;;;;2.60;1.33;;;22.70;69.20;;;;;;5052851;28;20464;-85
2023/11/16 07:51:12;;;;;;;1.83;1.10;;;22.70;69.20;;;;;;5035170;28;20470;-93
2023/11/16 07:53:41;;;;;;;3.10;1.30;;;22.70;68.80;;;;;;5038239;28;20438;-96
2023/11/16 07:56:10;;;;;;;2.77;1.53;;;22.70;69.00;;;;;;5016806;28;20526;-85
2023/11/16 07:58:39;;;;;;;1.93;1.63;;;22.70;69.20;;;;;;5034229;28;20500;-95
2023/11/16 08:01:12;;;;;;;2.60;1.33;;;22.70;69.20;;;;;;5053359;28;20575;-87
2023/11/16 08:03:44;;;;;;;1.97;1.40;;;22.70;69.30;;;;;;5036427;28;20947;-86
2023/11/16 08:06:14;;;;;;;1.40;1.23;;;22.70;69.30;;;;;;5056455;28;20520;-86
2023/11/16 08:08:42;;;;;;;4.20;1.70;;;22.70;69.30;;;;;;5052795;28;20453;-83
2023/11/16 08:11:11;;;;;;;2.50;1.40;;;22.80;69.30;;;;;;5052712;28;20433;-83
2023/11/16 08:13:40;;;;;;;2.07;1.50;;;22.80;69.50;;;;;;5052603;28;20845;-81
2023/11/16 08:16:09;;;;;;;2.23;1.27;;;22.80;69.30;;;;;;5059341;28;20495;-96
2023/11/16 08:18:37;;;;;;;2.90;1.50;;;22.80;69.50;;;;;;5061462;28;20465;-86
2023/11/16 08:23:50;;;;;;;5.30;1.40;;;22.90;69.40;;;;;;5027717;28;20442;-87
2023/11/16 08:26:27;;;;;;;2.50;1.63;;;22.90;69.60;;;;;;5059829;28;20517;-87
2023/11/16 08:28:54;;;;;;;1.73;1.30;;;23.00;69.70;;;;;;5057118;28;20811;-85
2023/11/16 08:31:21;;;;;;;4.33;1.60;;;23.00;69.70;;;;;;5059443;28;20464;-84
2023/11/16 08:33:48;;;;;;;3.60;1.43;;;23.10;69.80;;;;;;5062888;28;20535;-87
2023/11/16 08:36:16;;;;;;;3.03;1.87;;;23.20;69.90;;;;;;5056173;28;20820;-86
2023/11/16 08:38:45;;;;;;;2.90;1.70;;;23.10;68.00;;;;;;5040272;28;20442;-84
2023/11/16 08:41:16;;;;;;;2.50;1.53;;;23.20;69.80;;;;;;5055949;28;20449;-83
2023/11/16 08:43:43;;;;;;;3.80;1.20;;;23.20;69.90;;;;;;5057110;28;20487;-84
2023/11/16 08:46:11;;;;;;;1.70;1.53;;;23.20;69.80;;;;;;5056229;28;20441;-83
2023/11/16 08:48:43;;;;;;;3.73;2.43;;;23.30;70.00;;;;;;5087869;22;20472;-82
2023/11/16 08:51:14;;;;;;;14.43;4.60;;;23.30;69.90;;;;;;5076148;22;20472;-82
2023/11/16 08:53:42;;;;;;;12.73;5.60;;;23.30;70.20;;;;;;5082614;28;20543;-96
2023/11/16 08:56:09;;;;;;;11.73;5.77;;;23.30;70.30;;;;;;5072493;28;20595;-84
2023/11/16 08:58:40;;;;;;;12.17;4.50;;;23.30;70.50;;;;;;5072218;28;20441;-82
2023/11/16 09:01:07;;;;;;;38.80;10.53;;;23.40;70.90;;;;;;5060452;28;20449;-87
2023/11/16 09:03:36;;;;;;;20.30;9.77;;;23.30;71.30;;;;;;5065369;28;20536;-86
2023/11/16 09:06:05;;;;;;;23.83;8.90;;;23.30;71.70;;;;;;5065011;28;20421;-88
2023/11/16 09:08:33;;;;;;;20.43;8.63;;;23.40;73.10;;;;;;5063999;28;20453;-88
2023/11/16 09:11:00;;;;;;;12.63;5.40;;;23.40;72.70;;;;;;5065446;28;20524;-96
2023/11/16 09:13:28;;;;;;;22.20;7.27;;;23.20;67.90;;;;;;5061382;28;20465;-86
2023/11/16 09:15:56;;;;;;;16.70;6.83;;;23.20;72.30;;;;;;5062664;28;20476;-86
2023/11/16 09:18:23;;;;;;;25.77;8.87;;;23.20;73.30;;;;;;5059820;28;20453;-92
2023/11/16 09:20:51;;;;;;;24.50;9.50;;;23.30;73.70;;;;;;5055663;28;20449;-86
2023/11/16 09:23:20;;;;;;;22.47;8.17;;;23.30;73.80;;;;;;5056632;28;20453;-88
2023/11/16 09:25:46;;;;;;;24.43;7.83;;;23.40;73.80;;;;;;5060728;28;20471;-89
2023/11/16 09:28:17;;;;;;;19.43;7.90;;;23.30;73.90;;;;;;5061007;28;20481;-90
2023/11/16 09:30:44;;;;;;;28.33;9.60;;;23.40;74.70;;;;;;5066697;28;20531;-89
2023/11/16 09:33:12;;;;;;;22.53;9.10;;;23.40;74.40;;;;;;5064741;28;20539;-89
2023/11/16 09:35:40;;;;;;;16.23;6.67;;;23.40;73.70;;;;;;5060758;28;20520;-92
2023/11/16 09:38:09;;;;;;;19.87;8.50;;;23.40;73.90;;;;;;5056317;28;20445;-87
2023/11/16 09:40:37;;;;;;;18.37;8.00;;;23.40;73.70;;;;;;5058214;28;20437;-90
2023/11/16 09:43:16;;;;;;;22.60;7.97;;;23.40;74.30;;;;;;5056885;28;20445;-88
2023/11/16 09:45:48;;;;;;;15.23;5.80;;;23.40;73.60;;;;;;5062557;28;20504;-96
2023/11/16 09:48:20;;;;;;;14.43;6.97;;;23.40;73.70;;;;;;5058966;28;20441;-88
2023/11/16 09:50:49;;;;;;;12.00;7.07;;;23.30;73.30;;;;;;5055452;28;20567;-87
2023/11/16 09:53:17;;;;;;;12.83;5.97;;;23.30;73.40;;;;;;5057450;28;20797;-87
2023/11/16 09:55:49;;;;;;;22.87;7.30;;;23.30;74.20;;;;;;5057921;28;20540;-88
2023/11/16 09:58:23;;;;;;;13.63;6.40;;;23.30;74.00;;;;;;5055091;28;20445;-84
2023/11/16 10:00:55;;;;;;;11.93;5.70;;;23.30;73.60;;;;;;5059978;28;20480;-89
2023/11/16 10:03:26;;;;;;;11.73;5.60;;;23.30;73.60;;;;;;5057981;28;20503;-85
2023/11/16 10:05:55;;;;;;;10.50;5.77;;;23.30;71.80;;;;;;5055516;28;20433;-85
2023/11/16 10:08:23;;;;;;;11.87;5.40;;;23.20;73.10;;;;;;5051782;28;20469;-95
2023/11/16 10:10:54;;;;;;;16.80;6.83;;;23.20;73.20;;;;;;5060264;28;20449;-84
2023/11/16 10:13:22;;;;;;;10.60;5.03;;;23.20;72.90;;;;;;5055234;28;20809;-84
2023/11/16 10:16:09;;;;;;;10.50;5.07;;;23.20;72.40;;;;;;5042652;28;20442;-93
2023/11/16 10:18:38;;;;;;;10.83;4.67;;;23.30;72.90;;;;;;5046526;28;20450;-85
2023/11/16 10:21:06;;;;;;;11.20;5.40;;;23.20;71.80;;;;;;5068383;23;20489;-87
2023/11/16 10:26:31;;;;;;;14.40;6.40;;;23.20;72.10;;;;;;5068847;28;20480;-87
2023/11/16 10:28:57;;;;;;;13.47;5.53;;;23.20;72.30;;;;;;5061101;28;20444;-87
2023/11/16 10:31:25;;;;;;;9.30;4.70;;;23.20;72.00;;;;;;5063616;28;20798;-85
2023/11/16 10:33:53;;;;;;;9.00;4.80;;;23.20;71.70;;;;;;5058582;28;20514;-85
2023/11/16 10:36:23;;;;;;;11.60;4.00;;;23.20;72.10;;;;;;5059161;28;20460;-94
2023/11/16 10:38:51;;;;;;;9.43;4.67;;;23.20;72.10;;;;;;5057766;28;20433;-86
2023/11/16 10:41:19;;;;;;;11.37;4.37;;;23.20;71.90;;;;;;5055795;28;20515;-87
2023/11/16 10:43:52;;;;;;;10.77;4.90;;;23.20;70.80;;;;;;5060737;28;20457;-87
2023/11/16 10:46:21;;;;;;;7.00;4.37;;;23.20;71.50;;;;;;5058852;28;20453;-87
2023/11/16 10:48:49;;;;;;;6.07;3.77;;;23.20;71.20;;;;;;5058949;28;20547;-87
2023/11/16 10:51:21;;;;;;;9.73;5.00;;;23.20;70.80;;;;;;5059259;28;20523;-85
2023/11/16 10:53:53;;;;;;;6.87;3.23;;;23.20;71.40;;;;;;5060655;28;20442;-87
2023/11/16 10:56:21;;;;;;;9.73;3.67;;;23.20;68.80;;;;;;5073582;22;23482;-91
2023/11/16 10:58:50;;;;;;;6.33;3.30;;;23.10;69.40;;;;;;5080860;28;20499;-89
2023/11/16 11:01:19;;;;;;;6.20;2.97;;;23.10;68.10;;;;;;5080377;28;20459;-85
2023/11/16 11:03:46;;;;;;;13.23;3.50;;;23.10;69.70;;;;;;5081495;28;20444;-85
2023/11/16 11:06:19;;;;;;;8.60;3.60;;;23.10;69.90;;;;;;5079817;28;20440;-85
2023/11/16 11:08:47;;;;;;;5.13;3.53;;;23.10;70.00;;;;;;5078993;28;20420;-84
2023/11/16 11:11:20;;;;;;;8.13;3.40;;;23.10;70.80;;;;;;5079546;28;20498;-85
2023/11/16 11:13:53;;;;;;;5.57;3.30;;;23.10;70.20;;;;;;5085047;28;20435;-84
2023/11/16 11:16:25;;;;;;;12.40;4.10;;;23.10;70.90;;;;;;5074910;28;20455;-86
2023/11/16 11:18:52;;;;;;;8.80;3.80;;;23.10;71.10;;;;;;5079229;28;20529;-86
2023/11/16 11:21:21;;;;;;;6.30;3.40;;;23.10;70.30;;;;;;5073963;28;20436;-85
2023/11/16 11:24:05;;;;;;;4.50;3.17;;;23.10;70.20;;;;;;5074676;28;20519;-86
2023/11/16 11:26:40;;;;;;;4.97;3.60;;;23.20;70.40;;;;;;5076248;28;20460;-87
2023/11/16 11:29:09;;;;;;;8.70;3.17;;;23.20;70.10;;;;;;5083416;28;20451;-85
2023/11/16 11:31:44;;;;;;;8.87;3.63;;;23.10;70.50;;;;;;5077008;28;20440;-85
2023/11/16 11:34:11;;;;;;;6.43;3.03;;;23.20;70.90;;;;;;5077450;28;20404;-85
2023/11/16 11:36:41;;;;;;;6.03;3.17;;;23.10;68.40;;;;;;5080810;28;20827;-84
2023/11/16 11:39:14;;;;;;;5.60;3.57;;;23.10;69.40;;;;;;5079719;28;20513;-84
2023/11/16 11:41:48;;;;;;;5.00;3.27;;;23.10;69.80;;;;;;5080456;22;20477;-84
2023/11/16 11:44:15;;;;;;;3.70;3.40;;;23.10;69.70;;;;;;5063029;23;20504;-84
2023/11/16 11:46:42;;;;;;;5.17;3.03;;;23.10;69.80;;;;;;5058400;28;20944;-84
2023/11/16 11:49:09;;;;;;;5.03;2.57;;;23.10;69.40;;;;;;5055460;28;20445;-84
2023/11/16 11:51:37;;;;;;;8.77;3.17;;;23.10;69.10;;;;;;5054387;28;20436;-84
2023/11/16 11:54:07;;;;;;;5.97;3.10;;;23.10;69.20;;;;;;5053252;28;20440;-84
2023/11/16 11:56:33;;;;;;;5.60;2.40;;;23.10;69.10;;;;;;5054556;28;20477;-84
2023/11/16 11:59:00;;;;;;;3.97;2.53;;;23.10;69.30;;;;;;5055020;28;20442;-84
2023/11/16 12:01:27;;;;;;;6.00;3.30;;;23.10;69.00;;;;;;5054522;28;20433;-84
2023/11/16 12:03:59;;;;;;;6.97;2.87;;;23.10;69.00;;;;;;5065234;22;20489;-84
2023/11/16 12:06:28;;;;;;;5.17;2.80;;;23.10;69.30;;;;;;5053388;28;20445;-84
2023/11/16 12:08:55;;;;;;;4.20;2.10;;;23.10;69.10;;;;;;5055497;28;20852;-84
2023/11/16 12:11:26;;;;;;;3.10;2.10;;;23.10;69.30;;;;;;5058164;28;20445;-84
2023/11/16 12:13:54;;;;;;;6.50;3.00;;;23.10;69.20;;;;;;5054792;28;20495;-84
2023/11/16 12:16:23;;;;;;;4.07;2.93;;;23.10;69.00;;;;;;5054246;28;20854;-84
2023/11/16 12:18:53;;;;;;;5.17;2.60;;;23.10;69.20;;;;;;5054103;28;20484;-84
2023/11/16 12:21:22;;;;;;;3.73;2.23;;;23.10;69.30;;;;;;5055015;28;20441;-84
2023/11/16 12:23:51;;;;;;;3.90;3.07;;;23.10;69.10;;;;;;5053964;28;20469;-84
2023/11/16 12:26:18;;;;;;;8.73;2.47;;;23.10;69.10;;;;;;5054109;28;20464;-84
2023/11/16 12:28:47;;;;;;;6.33;2.73;;;23.10;69.00;;;;;;5055294;28;20463;-84
2023/11/16 12:31:17;;;;;;;5.27;2.30;;;23.10;69.00;;;;;;5061015;28;20441;-84
2023/11/16 12:33:44;;;;;;;5.60;2.30;;;23.10;69.10;;;;;;5057259;28;20465;-84
2023/11/16 12:36:11;;;;;;;3.80;2.60;;;23.10;69.20;;;;;;5057689;28;20437;-84
2023/11/16 12:38:38;;;;;;;6.70;2.77;;;23.10;69.10;;;;;;5058846;28;20481;-84
2023/11/16 12:41:06;;;;;;;6.00;2.60;;;23.10;68.90;;;;;;5067566;22;20583;-84
2023/11/16 12:43:33;;;;;;;3.77;2.40;;;23.10;69.20;;;;;;5058255;28;20444;-84
2023/11/16 12:46:01;;;;;;;15.70;2.60;;;23.10;69.20;;;;;;5057419;28;20441;-84
2023/11/16 12:48:28;;;;;;;3.77;2.40;;;23.20;69.30;;;;;;5060223;28;20433;-84
2023/11/16 12:50:55;;;;;;;4.57;1.87;;;23.10;69.00;;;;;;5058166;28;20445;-84
2023/11/16 12:53:22;;;;;;;6.83;2.50;;;23.10;69.00;;;;;;5061250;28;20441;-84
2023/11/16 12:55:49;;;;;;;4.33;2.47;;;23.10;69.80;;;;;;5058946;28;20464;-84